Time;durP1;ratioP1;P1;durP2;ratioP2;P2;SDS_P1;SDS_P2;PMS_P1;PMS_P2;Temp;Humidity;BMP_temperature;BMP_pressure;BME280_temperature;BME280_humidity;BME280_pressure;Samples;Min_cycle;Max_cycle;Signal;HPM_P1;HPM_P2
2021/01/27 08:47:42;;;;;;;6.97;2.42;;;20.00;37.80;;;23.56;26.06;100849.28;6240084;22;20027;-82
2021/01/27 08:50:43;;;;;;;6.35;2.35;;;20.00;37.80;;;23.61;26.04;100850.63;6211492;22;20426;-81
2021/01/27 08:53:17;;;;;;;5.47;2.42;;;20.00;37.80;;;23.64;26.15;100849.56;6246121;23;20016;-81
2021/01/27 08:55:46;;;;;;;9.82;3.05;;;20.00;37.80;;;23.64;26.02;100842.41;6246930;23;20377;-81
2021/01/27 08:58:38;;;;;;;8.80;2.25;;;20.00;37.80;;;23.65;25.88;100836.09;6245243;23;20008;-81
2021/01/27 09:01:22;;;;;;;7.30;2.70;;;20.00;37.80;;;23.66;25.88;100836.97;6220663;23;20394;-82
2021/01/27 09:03:50;;;;;;;8.15;2.60;;;20.00;37.70;;;23.68;25.91;100837.69;6220879;23;20066;-83
2021/01/27 09:06:41;;;;;;;11.20;2.97;;;20.00;37.80;;;23.64;25.79;100823.72;6220236;23;20127;-82
2021/01/27 09:09:28;;;;;;;9.85;2.47;;;20.00;37.80;;;23.70;26.08;100837.59;6195718;23;20032;-84
2021/01/27 09:12:08;;;;;;;9.35;2.85;;;20.00;37.70;;;23.63;25.95;100830.03;6220280;23;20038;-83
2021/01/27 09:14:35;;;;;;;7.10;2.67;;;20.00;37.80;;;23.68;26.00;100841.22;6245642;23;20083;-85
2021/01/27 09:17:05;;;;;;;7.70;2.22;;;20.00;37.70;;;23.73;25.96;100851.56;6271030;22;20019;-85
2021/01/27 09:19:35;;;;;;;12.07;2.47;;;20.00;37.70;;;23.64;25.91;100830.91;6245526;23;20069;-82
2021/01/27 09:22:12;;;;;;;10.18;2.60;;;20.00;37.70;;;23.74;26.08;100836.38;6220949;23;20019;-79
2021/01/27 09:24:48;;;;;;;8.77;2.78;;;20.10;38.00;;;23.65;25.96;100814.72;6219863;23;20028;-80
2021/01/27 09:27:26;;;;;;;12.18;2.72;;;20.10;38.40;;;23.65;26.31;100816.56;6245940;23;20004;-80
2021/01/27 09:30:09;;;;;;;8.60;2.70;;;20.10;38.30;;;23.76;26.01;100829.13;6245264;23;20315;-80
2021/01/27 09:32:35;;;;;;;12.18;3.03;;;20.10;38.50;;;23.70;26.29;100821.56;6195484;23;20328;-81
2021/01/27 09:35:21;;;;;;;10.93;3.03;;;20.10;38.50;;;23.73;25.93;100838.19;6220107;23;20012;-82
2021/01/27 09:37:59;;;;;;;10.25;2.65;;;20.10;38.30;;;23.77;26.17;100847.72;6195709;23;20043;-78
2021/01/27 09:40:38;;;;;;;13.68;2.65;;;20.10;38.30;;;23.76;26.20;100845.16;6245465;23;20154;-80
2021/01/27 09:43:10;;;;;;;15.80;3.38;;;20.10;38.30;;;23.70;26.24;100841.09;6246038;23;20039;-82
2021/01/27 09:45:40;;;;;;;15.75;2.88;;;20.10;38.20;;;23.74;26.38;100841.72;6220432;23;20015;-80
2021/01/27 09:48:07;;;;;;;17.30;2.80;;;20.10;38.40;;;23.73;26.04;100848.88;6246831;23;20086;-81
2021/01/27 09:50:38;;;;;;;17.92;3.40;;;20.10;38.30;;;23.79;26.05;100863.59;6219852;23;20008;-81
2021/01/27 09:53:07;;;;;;;14.55;3.17;;;20.10;38.30;;;23.84;26.06;100866.81;6219584;23;20016;-80
2021/01/27 09:55:34;;;;;;;22.02;3.08;;;20.10;38.30;;;23.85;26.27;100872.03;6194068;23;20019;-80
2021/01/27 09:58:05;;;;;;;24.70;3.40;;;20.10;38.40;;;23.83;26.38;100862.44;6194310;23;20012;-80
2021/01/27 10:00:38;;;;;;;25.95;3.60;;;20.20;38.40;;;23.90;26.35;100865.50;6267256;22;20082;-80
2021/01/27 10:03:34;;;;;;;19.15;3.10;;;20.20;38.70;;;23.86;26.25;100864.88;6224754;22;20019;-83
2021/01/27 10:06:00;;;;;;;29.95;3.63;;;20.20;38.40;;;23.88;26.52;100867.44;6218339;22;20341;-80
2021/01/27 10:08:40;;;;;;;30.48;4.57;;;20.20;38.30;;;23.90;26.22;100862.84;6250066;22;20012;-79
2021/01/27 10:11:33;;;;;;;22.63;3.70;;;20.20;38.40;;;23.95;26.25;100869.53;6249657;22;20442;-80
2021/01/27 10:14:04;;;;;;;29.80;4.75;;;20.30;38.50;;;23.92;26.14;100861.75;6200089;22;20023;-80
2021/01/27 10:16:31;;;;;;;35.45;3.95;;;20.20;38.30;;;23.94;26.22;100862.50;6244807;23;20883;-81
2021/01/27 10:19:07;;;;;;;27.35;4.30;;;20.20;38.40;;;23.90;26.10;100855.66;6218380;23;20012;-79
2021/01/27 10:21:47;;;;;;;25.02;4.45;;;20.30;38.40;;;23.92;26.40;100836.88;6219157;23;20012;-79
2021/01/27 10:24:51;;;;;;;28.23;4.95;;;20.30;38.40;;;23.94;26.23;100843.81;6196428;22;20020;-79
2021/01/27 10:27:40;;;;;;;23.00;4.00;;;20.20;38.30;;;23.94;26.38;100841.13;6224889;22;20019;-80
2021/01/27 10:30:27;;;;;;;24.85;4.03;;;20.20;38.40;;;23.96;26.32;100830.34;6199042;22;20103;-81
2021/01/27 10:32:53;;;;;;;25.27;4.00;;;20.30;38.40;;;23.97;26.19;100818.66;6270167;22;20016;-80
